createdAt,value
2024-03-13T00:01:52.678Z,19.40
2024-03-13T00:04:20.641Z,19.87
2024-03-13T00:06:52.323Z,19.73
2024-03-13T00:09:21.460Z,18.40
2024-03-13T00:11:48.408Z,19.77
2024-03-13T00:14:17.673Z,21.27
2024-03-13T00:16:45.487Z,19.10
2024-03-13T00:19:12.256Z,19.50
2024-03-13T00:21:40.225Z,17.93
2024-03-13T00:24:07.066Z,17.13
2024-03-13T00:26:37.772Z,18.23
2024-03-13T00:29:05.555Z,17.97
2024-03-13T00:31:32.594Z,16.77
2024-03-13T00:33:59.453Z,16.77
2024-03-13T00:36:26.186Z,18.33
2024-03-13T00:38:52.909Z,19.27
2024-03-13T00:41:20.401Z,18.57
2024-03-13T00:43:47.178Z,20.47
2024-03-13T00:46:14.214Z,18.17
2024-03-13T00:48:41.117Z,19.63
2024-03-13T00:51:10.316Z,19.43
2024-03-13T00:53:39.245Z,20.20
2024-03-13T00:56:06.599Z,21.10
2024-03-13T00:58:35.301Z,21.77
2024-03-13T01:01:02.175Z,22.43
2024-03-13T01:03:29.488Z,22.07
2024-03-13T01:05:57.224Z,25.73
2024-03-13T01:08:25.755Z,27.60
2024-03-13T01:10:55.574Z,26.07
2024-03-13T01:13:22.968Z,27.93
2024-03-13T01:15:49.890Z,30.13
2024-03-13T01:18:16.699Z,29.80
2024-03-13T01:20:43.686Z,35.10
2024-03-13T01:23:12.842Z,35.60
2024-03-13T01:25:42.134Z,30.50
2024-03-13T01:28:09.065Z,35.47
2024-03-13T01:30:35.712Z,42.67
2024-03-13T01:33:02.638Z,36.97
2024-03-13T01:35:29.392Z,39.50
2024-03-13T01:38:03.048Z,41.43
2024-03-13T01:40:48.686Z,40.50
2024-03-13T01:43:36.028Z,41.20
2024-03-13T01:46:38.479Z,38.97
2024-03-13T01:49:38.197Z,38.63
2024-03-13T01:52:30.053Z,37.53
2024-03-13T01:55:08.490Z,39.00
2024-03-13T01:57:47.223Z,35.40
2024-03-13T02:00:33.701Z,38.90
2024-03-13T02:03:00.601Z,36.27
2024-03-13T02:05:27.490Z,35.23
2024-03-13T02:07:57.290Z,28.77
2024-03-13T02:10:24.088Z,30.90
2024-03-13T02:13:07.410Z,28.43
2024-03-13T02:15:36.002Z,29.53
2024-03-13T02:18:05.982Z,24.93
2024-03-13T02:20:35.679Z,26.00
2024-03-13T02:23:06.042Z,22.87
2024-03-13T02:25:39.025Z,27.50
2024-03-13T02:28:05.891Z,24.00
2024-03-13T02:30:33.084Z,20.77
2024-03-13T02:32:59.775Z,25.23
2024-03-13T02:35:26.510Z,22.80
2024-03-13T02:37:53.303Z,22.03
2024-03-13T02:40:20.076Z,24.13
2024-03-13T02:42:47.910Z,24.97
2024-03-13T02:45:15.236Z,28.17
2024-03-13T02:47:47.812Z,29.97
2024-03-13T02:50:15.081Z,27.03
2024-03-13T02:52:42.000Z,28.20
2024-03-13T02:55:11.486Z,26.63
2024-03-13T02:57:38.318Z,28.13
2024-03-13T03:00:07.592Z,23.37
2024-03-13T03:02:36.022Z,26.83
2024-03-13T03:05:04.525Z,21.50
2024-03-13T03:07:35.041Z,24.40
2024-03-13T03:10:02.589Z,25.20
2024-03-13T03:12:29.732Z,23.30
2024-03-13T03:14:56.473Z,23.37
2024-03-13T03:17:23.821Z,23.17
2024-03-13T03:20:00.842Z,18.00
2024-03-13T03:22:27.591Z,18.13
2024-03-13T03:24:56.490Z,18.23
2024-03-13T03:27:24.361Z,17.47
2024-03-13T03:29:53.122Z,14.17
2024-03-13T03:32:23.070Z,16.90
2024-03-13T03:34:50.335Z,16.07
2024-03-13T03:37:17.162Z,15.03
2024-03-13T03:39:44.041Z,14.30
2024-03-13T03:42:11.171Z,13.00
2024-03-13T03:44:38.116Z,13.80
2024-03-13T03:47:04.888Z,14.03
2024-03-13T03:49:31.635Z,16.30
2024-03-13T03:51:58.622Z,15.43
2024-03-13T03:54:25.368Z,12.00
2024-03-13T03:56:53.370Z,12.67
2024-03-13T03:59:20.241Z,14.00
2024-03-13T04:01:47.133Z,13.67
2024-03-13T04:04:16.842Z,14.83
2024-03-13T04:06:44.851Z,13.47
2024-03-13T04:09:17.417Z,14.07
2024-03-13T04:11:44.502Z,17.80
2024-03-13T04:14:14.566Z,16.93
2024-03-13T04:16:45.095Z,13.27
2024-03-13T04:19:15.493Z,14.27
2024-03-13T04:21:43.897Z,14.37
2024-03-13T04:24:10.811Z,15.23
2024-03-13T04:26:41.013Z,13.47
2024-03-13T04:29:08.043Z,14.60
2024-03-13T04:31:36.960Z,13.13
2024-03-13T04:34:04.000Z,15.83
2024-03-13T04:36:33.123Z,15.13
2024-03-13T04:38:59.835Z,14.27
2024-03-13T04:41:26.573Z,12.93
2024-03-13T04:43:56.483Z,14.20
2024-03-13T04:46:23.326Z,13.23
2024-03-13T04:48:50.181Z,14.17
2024-03-13T04:51:18.242Z,12.03
2024-03-13T04:53:45.082Z,13.17
2024-03-13T04:56:15.207Z,10.97
2024-03-13T04:58:42.550Z,11.40
2024-03-13T05:01:18.265Z,11.23
2024-03-13T05:03:45.227Z,12.37
2024-03-13T05:06:12.292Z,11.33
2024-03-13T05:08:39.961Z,10.53
2024-03-13T05:11:10.324Z,9.33
2024-03-13T05:13:37.542Z,10.93
2024-03-13T05:16:06.543Z,11.57
2024-03-13T05:18:35.712Z,13.60
2024-03-13T05:21:02.543Z,10.73
2024-03-13T05:23:29.288Z,10.80
2024-03-13T05:25:58.018Z,10.83
2024-03-13T05:28:26.314Z,12.53
2024-03-13T05:30:53.053Z,11.80
2024-03-13T05:33:19.920Z,11.10
2024-03-13T05:35:46.780Z,12.13
2024-03-13T05:38:13.573Z,14.20
2024-03-13T05:40:40.374Z,16.70
2024-03-13T05:43:07.143Z,11.73
2024-03-13T05:45:36.265Z,13.03
2024-03-13T05:48:03.790Z,13.97
2024-03-13T05:50:30.741Z,12.70
2024-03-13T05:52:57.421Z,14.10
2024-03-13T05:55:25.552Z,13.57
2024-03-13T05:57:52.547Z,13.23
2024-03-13T06:00:20.339Z,16.30
2024-03-13T06:02:49.494Z,16.33
2024-03-13T06:05:18.145Z,13.00
2024-03-13T06:07:48.047Z,13.03
2024-03-13T06:10:15.536Z,14.40
2024-03-13T06:12:42.404Z,16.67
2024-03-13T06:15:13.505Z,14.63
2024-03-13T06:17:40.215Z,18.00
2024-03-13T06:20:14.439Z,17.83
2024-03-13T06:22:42.303Z,19.67
2024-03-13T06:25:09.995Z,19.67
2024-03-13T06:27:37.582Z,20.93
2024-03-13T06:30:07.393Z,21.07
2024-03-13T06:32:34.130Z,24.53
2024-03-13T06:35:05.652Z,24.90
2024-03-13T06:37:36.275Z,28.53
2024-03-13T06:40:05.322Z,26.33
2024-03-13T06:42:32.826Z,31.67
2024-03-13T06:44:59.808Z,33.93
2024-03-13T06:47:26.808Z,33.13
2024-03-13T06:49:53.664Z,36.77
2024-03-13T06:52:20.531Z,42.60
2024-03-13T06:54:47.452Z,41.50
2024-03-13T06:57:14.301Z,34.30
2024-03-13T06:59:43.241Z,39.47
2024-03-13T07:02:15.173Z,39.40
2024-03-13T07:04:45.177Z,36.27
2024-03-13T07:07:12.101Z,33.33
2024-03-13T07:09:38.999Z,37.43
2024-03-13T07:12:06.021Z,34.97
2024-03-13T07:14:32.751Z,31.43
2024-03-13T07:16:59.794Z,30.00
2024-03-13T07:19:32.414Z,29.67
2024-03-13T07:21:59.832Z,23.93
2024-03-13T07:24:26.584Z,25.57
2024-03-13T07:26:53.970Z,25.93
2024-03-13T07:29:20.672Z,20.20
2024-03-13T07:31:47.352Z,18.70
2024-03-13T07:34:14.945Z,23.03
2024-03-13T07:36:41.881Z,24.20
2024-03-13T07:39:12.419Z,23.20
2024-03-13T07:41:42.549Z,21.17
2024-03-13T07:44:09.534Z,19.77
2024-03-13T07:46:36.493Z,16.17
2024-03-13T07:49:06.361Z,18.13
2024-03-13T07:51:33.371Z,14.37
2024-03-13T07:54:00.139Z,17.80
2024-03-13T07:56:29.510Z,18.67
2024-03-13T07:58:56.295Z,16.37
2024-03-13T08:01:23.931Z,12.17
2024-03-13T08:03:50.976Z,14.53
2024-03-13T09:06:44.325Z,40.20
2024-03-13T09:09:11.185Z,39.63
2024-03-13T09:11:39.087Z,37.17
2024-03-13T09:14:08.847Z,40.83
2024-03-13T09:16:37.110Z,43.07
2024-03-13T09:19:05.268Z,38.00
2024-03-13T09:21:32.252Z,38.67
2024-03-13T09:23:59.489Z,47.23
2024-03-13T09:26:26.842Z,41.17
2024-03-13T09:28:56.680Z,39.73
2024-03-13T09:31:25.287Z,41.30
2024-03-13T09:33:52.183Z,39.43
2024-03-13T09:36:21.838Z,43.33
2024-03-13T09:38:48.949Z,37.00
2024-03-13T09:41:15.773Z,38.50
2024-03-13T09:43:42.520Z,42.53
2024-03-13T09:46:10.996Z,36.80
2024-03-13T09:48:40.743Z,33.10
2024-03-13T09:51:10.814Z,36.67
2024-03-13T09:53:41.919Z,31.23
2024-03-13T09:56:14.861Z,32.00
2024-03-13T09:58:47.121Z,35.10
2024-03-13T10:01:27.419Z,35.97
2024-03-13T10:04:03.376Z,36.73
2024-03-13T10:06:34.681Z,35.97
2024-03-13T10:09:04.897Z,36.60
2024-03-13T10:11:33.976Z,35.03
2024-03-13T10:14:03.517Z,33.50
2024-03-13T10:16:34.428Z,37.80
2024-03-13T10:19:03.923Z,33.83
2024-03-13T10:21:31.710Z,38.47
2024-03-13T10:24:00.238Z,32.70
2024-03-13T10:26:38.420Z,30.17
2024-03-13T10:29:07.514Z,30.23
2024-03-13T10:31:36.055Z,33.40
2024-03-13T10:34:03.469Z,31.23
2024-03-13T10:36:30.624Z,36.17
2024-03-13T10:38:58.043Z,32.93
2024-03-13T10:41:24.766Z,34.87
2024-03-13T10:43:52.602Z,32.13
2024-03-13T10:46:19.281Z,33.23
2024-03-13T10:48:46.110Z,32.20
2024-03-13T10:51:14.804Z,33.40
2024-03-13T10:53:44.843Z,32.23
2024-03-13T10:56:15.946Z,30.50
2024-03-13T10:58:50.688Z,30.17
2024-03-13T11:01:19.229Z,30.13
2024-03-13T11:03:47.905Z,28.47
2024-03-13T11:06:16.547Z,30.97
2024-03-13T11:08:43.690Z,33.17
2024-03-13T11:11:20.752Z,30.17
2024-03-13T11:13:55.609Z,27.27
2024-03-13T11:16:26.927Z,31.03
2024-03-13T11:18:56.671Z,27.17
2024-03-13T11:21:58.727Z,29.47
2024-03-13T11:24:27.355Z,32.17
2024-03-13T11:26:59.120Z,25.63
2024-03-13T11:29:37.463Z,24.30
2024-03-13T11:32:09.944Z,20.17
2024-03-13T11:34:39.109Z,22.33
2024-03-13T11:37:08.532Z,19.00
2024-03-13T11:39:36.049Z,20.37
2024-03-13T11:42:18.706Z,22.60
2024-03-13T11:44:51.989Z,24.50
2024-03-13T11:47:24.198Z,27.77
2024-03-13T11:50:00.898Z,25.00
2024-03-13T11:52:27.744Z,22.60
2024-03-13T11:54:57.663Z,20.27
2024-03-13T11:57:25.771Z,22.30
2024-03-13T11:59:54.602Z,22.17
2024-03-13T12:02:31.493Z,18.43
2024-03-13T12:05:03.474Z,19.30
2024-03-13T12:07:35.810Z,14.77
2024-03-13T12:10:03.642Z,16.73
2024-03-13T12:12:30.457Z,14.10
2024-03-13T12:14:59.543Z,16.23
2024-03-13T12:17:29.474Z,13.03
2024-03-13T12:19:57.512Z,15.23
2024-03-13T12:22:27.861Z,16.00
2024-03-13T12:24:54.716Z,12.67
2024-03-13T12:27:21.828Z,13.50
2024-03-13T12:29:49.869Z,16.00
2024-03-13T12:32:16.761Z,13.53
2024-03-13T12:34:46.314Z,20.17
2024-03-13T12:37:17.267Z,16.53
2024-03-13T12:39:44.165Z,17.43
2024-03-13T12:42:11.418Z,16.20
2024-03-13T12:44:38.292Z,16.63
2024-03-13T12:47:05.813Z,16.33
2024-03-13T12:49:33.222Z,17.47
2024-03-13T12:52:07.837Z,10.73
2024-03-13T12:54:36.770Z,14.83
2024-03-13T12:57:06.051Z,12.50
2024-03-13T12:59:32.961Z,11.87
2024-03-13T13:02:00.141Z,14.13
2024-03-13T13:04:27.189Z,8.30
2024-03-13T13:06:56.839Z,10.83
2024-03-13T13:09:23.625Z,8.67
2024-03-13T13:11:50.770Z,6.80
2024-03-13T13:14:17.567Z,7.07
2024-03-13T13:16:47.346Z,7.30
2024-03-13T13:19:14.399Z,5.73
2024-03-13T13:21:41.178Z,7.37
2024-03-13T13:24:07.948Z,8.90
2024-03-13T13:26:34.816Z,8.60
2024-03-13T13:31:32.051Z,7.87
2024-03-13T13:33:58.953Z,10.43
2024-03-13T13:36:25.726Z,11.47
2024-03-13T13:38:52.578Z,12.87
2024-03-13T13:41:21.538Z,14.10
2024-03-13T13:43:48.586Z,16.93
2024-03-13T13:46:16.506Z,15.73
2024-03-13T13:48:43.626Z,15.23
2024-03-13T13:51:11.550Z,19.80
2024-03-13T13:53:38.340Z,17.20
2024-03-13T13:56:05.906Z,17.70
2024-03-13T13:58:32.727Z,18.53
2024-03-13T14:00:59.552Z,18.53
2024-03-13T14:03:26.479Z,17.23
2024-03-13T14:05:53.542Z,15.83
2024-03-13T14:08:21.372Z,16.57
2024-03-13T14:10:49.950Z,20.30
2024-03-13T14:13:16.714Z,15.73
2024-03-13T14:15:43.489Z,15.53
2024-03-13T14:18:15.008Z,15.90
2024-03-13T14:20:43.592Z,12.73
2024-03-13T14:23:12.333Z,11.33
2024-03-13T14:25:39.173Z,10.83
2024-03-13T14:28:11.127Z,10.93
2024-03-13T14:30:40.926Z,11.97
2024-03-13T14:33:07.856Z,11.13
2024-03-13T14:35:34.683Z,9.60
2024-03-13T14:38:01.465Z,10.87
2024-03-13T14:40:30.267Z,9.67
2024-03-13T14:42:57.415Z,8.97
2024-03-13T14:45:24.203Z,8.30
2024-03-13T14:47:52.165Z,7.10
2024-03-13T14:50:20.861Z,10.43
2024-03-13T14:53:02.735Z,8.00
2024-03-13T14:55:33.345Z,7.83
2024-03-13T14:58:00.655Z,8.93
2024-03-13T15:00:28.345Z,8.77
2024-03-13T15:02:55.981Z,7.97
2024-03-13T15:05:25.382Z,7.47
2024-03-13T15:07:55.944Z,9.67
2024-03-13T15:10:26.396Z,7.93
2024-03-13T15:12:53.379Z,11.40
2024-03-13T15:15:20.792Z,8.27
2024-03-13T15:17:51.707Z,8.77
2024-03-13T15:20:19.397Z,9.00
2024-03-13T15:22:49.059Z,10.13
2024-03-13T15:25:16.689Z,9.27
2024-03-13T15:27:45.576Z,9.00
2024-03-13T15:30:16.783Z,11.57
2024-03-13T15:32:44.194Z,8.87
2024-03-13T15:35:11.392Z,9.00
2024-03-13T15:37:38.071Z,8.07
2024-03-13T15:40:07.962Z,6.47
2024-03-13T15:42:38.905Z,9.53
2024-03-13T15:45:06.249Z,8.50
2024-03-13T15:47:43.141Z,6.60
2024-03-13T15:50:20.256Z,6.47
2024-03-13T15:52:55.108Z,5.30
2024-03-13T15:55:22.405Z,5.37
2024-03-13T15:57:49.153Z,6.53
2024-03-13T16:00:19.610Z,6.20
2024-03-13T16:02:52.717Z,6.47
2024-03-13T16:05:20.942Z,6.27
2024-03-13T16:08:06.151Z,4.80
2024-03-13T16:10:33.143Z,6.93
2024-03-13T16:13:02.691Z,6.23
2024-03-13T16:15:29.438Z,4.60
2024-03-13T16:17:59.571Z,6.20
2024-03-13T16:20:26.726Z,5.40
2024-03-13T16:22:56.052Z,5.10
2024-03-13T16:25:23.034Z,4.47
2024-03-13T16:27:49.817Z,4.93
2024-03-13T16:30:20.647Z,5.67
2024-03-13T16:32:48.309Z,6.83
2024-03-13T16:35:18.158Z,4.70
2024-03-13T16:37:45.994Z,3.43
2024-03-13T16:40:18.480Z,3.47
2024-03-13T16:42:45.618Z,4.97
2024-03-13T16:45:12.545Z,2.93
2024-03-13T16:47:41.140Z,3.83
2024-03-13T16:50:09.419Z,2.90
2024-03-13T16:52:36.189Z,2.63
2024-03-13T16:55:03.079Z,3.50
2024-03-13T16:57:29.798Z,4.20
2024-03-13T16:59:58.469Z,3.47
2024-03-13T17:02:27.556Z,3.33
2024-03-13T17:04:54.323Z,3.97
2024-03-13T17:07:21.181Z,4.80
2024-03-13T17:09:50.310Z,3.70
2024-03-13T17:12:17.147Z,4.87
2024-03-13T17:14:44.031Z,3.10
2024-03-13T17:17:10.872Z,5.10
2024-03-13T17:19:37.819Z,4.40
2024-03-13T17:22:05.510Z,3.90
2024-03-13T17:24:32.549Z,3.00
2024-03-13T17:27:03.311Z,3.43
2024-03-13T17:29:32.372Z,5.50
2024-03-13T17:32:00.451Z,3.40
2024-03-13T17:34:27.172Z,4.93
2024-03-13T17:36:56.090Z,2.83
2024-03-13T17:39:22.897Z,3.30
2024-03-13T17:41:50.075Z,5.83
2024-03-13T17:44:19.020Z,3.53
2024-03-13T17:46:46.385Z,3.07
2024-03-13T17:49:13.524Z,3.67
2024-03-13T17:51:40.590Z,2.40
2024-03-13T17:54:08.188Z,3.53
2024-03-13T17:56:35.080Z,3.57
2024-03-13T18:01:34.080Z,3.33
2024-03-13T18:04:00.922Z,2.77
2024-03-13T18:06:27.841Z,2.73
2024-03-13T18:08:54.714Z,2.43
2024-03-13T18:11:21.605Z,2.23
2024-03-13T18:13:48.557Z,1.63
2024-03-13T18:16:15.310Z,3.93
2024-03-13T18:18:42.143Z,3.20
2024-03-13T18:21:09.422Z,3.90
2024-03-13T18:23:36.680Z,2.73
2024-03-13T18:26:03.509Z,2.83
2024-03-13T18:28:30.225Z,3.47
2024-03-13T18:30:56.988Z,3.37
2024-03-13T18:33:26.944Z,4.83
2024-03-13T18:35:53.719Z,4.40
2024-03-13T18:38:20.667Z,5.13
2024-03-13T18:40:47.478Z,3.87
2024-03-13T18:43:14.309Z,4.23
2024-03-13T18:45:41.139Z,5.10
2024-03-13T18:48:09.467Z,3.97
2024-03-13T18:50:36.295Z,4.27
2024-03-13T18:53:03.353Z,3.97
2024-03-13T18:55:31.753Z,4.23
2024-03-13T18:57:58.709Z,4.70
2024-03-13T19:00:26.734Z,3.63
2024-03-13T19:02:56.102Z,5.13
2024-03-13T19:05:25.327Z,4.60
2024-03-13T19:07:53.420Z,7.63
2024-03-13T19:10:25.007Z,4.40
2024-03-13T19:12:58.341Z,4.13
2024-03-13T19:15:28.721Z,4.83
2024-03-13T19:17:58.011Z,5.67
2024-03-13T19:20:24.888Z,5.37
2024-03-13T19:22:52.264Z,5.27
2024-03-13T19:25:19.036Z,7.27
2024-03-13T19:27:45.750Z,4.57
2024-03-13T19:30:12.725Z,4.33
2024-03-13T19:32:39.522Z,7.17
2024-03-13T19:35:06.437Z,5.90
2024-03-13T19:37:35.585Z,6.57
2024-03-13T19:40:06.708Z,5.83
2024-03-13T19:42:35.457Z,6.17
2024-03-13T19:45:05.239Z,6.33
2024-03-13T19:47:33.772Z,6.83
2024-03-13T19:50:05.419Z,5.80
2024-03-13T19:52:35.757Z,4.30
2024-03-13T19:55:02.570Z,6.77
2024-03-13T19:57:29.670Z,5.40
2024-03-13T19:59:56.455Z,6.03
2024-03-13T20:02:23.261Z,7.47
2024-03-13T20:04:50.165Z,8.23
2024-03-13T20:07:16.912Z,6.77
2024-03-13T20:09:43.960Z,7.77
2024-03-13T20:12:10.910Z,7.67
2024-03-13T20:14:37.802Z,8.57
2024-03-13T20:17:04.739Z,7.33
2024-03-13T20:19:31.737Z,8.57
2024-03-13T20:22:00.683Z,7.33
2024-03-13T20:24:27.571Z,9.00
2024-03-13T20:26:54.532Z,7.60
2024-03-13T20:29:30.120Z,9.60
2024-03-13T20:34:47.700Z,7.83
2024-03-13T20:34:58.456Z,8.40
2024-03-13T20:37:17.910Z,9.37
2024-03-13T20:39:45.003Z,8.63
2024-03-13T20:42:11.915Z,10.17
2024-03-13T20:44:40.818Z,8.33
2024-03-13T20:47:07.810Z,9.13
2024-03-13T20:49:35.803Z,8.23
2024-03-13T20:52:02.799Z,12.93
2024-03-13T20:54:30.402Z,9.07
2024-03-13T20:57:00.800Z,10.03
2024-03-13T20:59:33.638Z,7.60
2024-03-13T21:02:18.667Z,10.37
2024-03-13T21:17:26.530Z,7.73
2024-03-13T21:18:42.033Z,8.23
2024-03-13T21:21:22.842Z,10.03
2024-03-13T21:23:53.770Z,7.40
2024-03-13T21:26:25.579Z,7.37
2024-03-13T21:31:17.131Z,7.27
2024-03-13T21:31:42.864Z,9.00
2024-03-13T21:34:17.721Z,7.70
2024-03-13T21:41:01.354Z,8.97
2024-03-13T21:48:35.742Z,8.57
2024-03-13T22:01:52.362Z,8.07
2024-03-13T22:15:07.773Z,7.17
2024-03-13T22:17:34.819Z,8.43
2024-03-13T22:20:01.661Z,7.77
2024-03-13T22:22:28.559Z,7.43
2024-03-13T22:24:55.430Z,6.53
2024-03-13T22:27:22.865Z,6.87
2024-03-13T22:29:54.578Z,7.37
2024-03-13T22:32:22.762Z,8.33
2024-03-13T22:34:49.451Z,7.83
2024-03-13T22:37:16.257Z,7.80
2024-03-13T22:39:43.099Z,7.97
2024-03-13T22:42:11.232Z,6.00
2024-03-13T22:44:38.029Z,8.93
2024-03-13T22:47:06.415Z,7.60
2024-03-13T22:49:33.555Z,6.50
2024-03-13T22:52:00.312Z,7.67
2024-03-13T22:54:36.554Z,6.10
2024-03-13T22:57:04.209Z,6.47
2024-03-13T22:59:31.288Z,6.23
2024-03-13T23:01:58.351Z,7.83
2024-03-13T23:04:25.935Z,10.43
2024-03-13T23:06:52.913Z,8.13
2024-03-13T23:09:20.076Z,6.83
2024-03-13T23:11:46.974Z,6.60
2024-03-13T23:14:15.384Z,5.80
2024-03-13T23:16:42.428Z,5.73
2024-03-13T23:19:09.226Z,5.87
2024-03-13T23:21:38.163Z,5.80
2024-03-13T23:24:05.347Z,5.57
2024-03-13T23:26:34.217Z,6.27
2024-03-13T23:29:00.973Z,8.23
2024-03-13T23:31:27.816Z,7.13
2024-03-13T23:33:54.612Z,6.37
2024-03-13T23:36:22.349Z,7.30
2024-03-13T23:38:49.485Z,7.00
2024-03-13T23:41:17.247Z,5.13
2024-03-13T23:43:44.933Z,7.53
2024-03-13T23:46:15.484Z,7.53
2024-03-13T23:48:42.782Z,6.87
2024-03-13T23:51:11.624Z,6.47
2024-03-13T23:53:38.388Z,7.40
2024-03-13T23:56:05.718Z,4.97
2024-03-13T23:58:34.041Z,5.30
